Главная страница
METAR-TAF:

METAR-TAF

Аэропорты :

Врангель, Аляска, США

широта: 56-29N, долгота: 132-22W, высота над уровнем моря: 13 м

Текущие метеонаблюдения

Эта сводка был подготовлена 1 час и 6 минут назад, в 17:56 UTC
Ветер 3 Узел от северо-восточный
Температура 9°C
Влажность 76%
Давление 1021 hPa
Видимость: 16.1 км
ясное небо

METAR: PAWG 181756Z 05003KT 10SM CLR 09/05 A3014 RMK AO2 SLP208 T00890050 10089 20044 58003

Время: 11:02 (19:02 UTC)

Прогноз

Эта сводка был подготовлена 1 час и 42 минут назад, в 17:20 UTC
Прогноз действительный с 18-го 18 UTC до 19-го 18 UTC
Ветер 4 Узел от восточно-юго-восточный
Видимость: 10 км
ясное небо
С 18-го 2000 UTC
Ветер 5 Узел от западно-северо-западный
Видимость: 10 км
ясное небо
С 19-го 0400 UTC
Ветер 4 Узел переменных направлений
Видимость: 10 км
ясное небо

TAF: PAWG 181720Z 1818/1918 12004KT P6SM SKC FM182000 30005KT P6SM SKC FM190400 VRB04KT P6SM SKC AMD LTD TO CLD VIS AND WIND 1906/1915

Метеонаблюдения и прогнозы для более 4000 аэропортов (сводки METAR и TAF).

Имеющиеся станции представлены на карте желтыми и красными точками.

Чтобы увидеть название станции, наведите на нее мышь.

Затем щелкните, чтобы увидеть метеонаблюдения и метеопрогнозы.

Управление картой: чтобы увеличить масштаб, щелкните зеленые кнопки с черным крестиком; чтобы уменьшить масштаб, щелкните зеленую кнопку с тире; для просмотра соседних карт щелкайте зеленые стрелки.


METAR-TAF: